Palmers Lookout, Australia
Current Conditions -  °F | °C
As of 7:00 PM on Monday 20 Oct 2014 (Local Time) from YMHB Reporting Station
Few Clouds Few Clouds  
Wind Chill: 52°   Ceiling: Unl
Heat Index: 52°   Visibility: 6mi
Dew Point: 36°   Wind: 14mph
Humidity: 54%   Direction: 170°S
Pressure: 30.53"   Gusts: NA
Location:  43.17°S, 147.83°E
Report Text: YMHB 200800Z 17012KT 9999 FEW040 11/02 Q1034
Loading
Personal Weather Stations






























Interactive Weather Map
Tropical Storm Tracking
New forecast layout! Learn more

10-Day Weather Forecast

Advertisements
Track Severe Weather on mobile